sensor_id;sensor_type;location;lat;lon;timestamp;P1;durP1;ratioP1;P2;durP2;ratioP2
8074;SDS011;4080;42.676;23.372;2022-10-31T00:01:18;5.73;;;4.63;;
8074;SDS011;4080;42.676;23.372;2022-10-31T00:03:47;5.30;;;4.10;;
8074;SDS011;4080;42.676;23.372;2022-10-31T00:06:13;5.23;;;4.17;;
8074;SDS011;4080;42.676;23.372;2022-10-31T00:08:43;7.03;;;4.10;;
8074;SDS011;4080;42.676;23.372;2022-10-31T00:11:10;6.37;;;3.93;;
8074;SDS011;4080;42.676;23.372;2022-10-31T00:13:36;7.10;;;4.47;;
8074;SDS011;4080;42.676;23.372;2022-10-31T00:16:03;5.23;;;4.10;;
8074;SDS011;4080;42.676;23.372;2022-10-31T00:18:32;6.00;;;4.50;;
8074;SDS011;4080;42.676;23.372;2022-10-31T00:20:59;6.30;;;4.20;;
8074;SDS011;4080;42.676;23.372;2022-10-31T00:23:26;4.87;;;4.00;;
8074;SDS011;4080;42.676;23.372;2022-10-31T00:25:53;7.80;;;4.33;;
8074;SDS011;4080;42.676;23.372;2022-10-31T00:28:20;6.60;;;4.40;;
8074;SDS011;4080;42.676;23.372;2022-10-31T00:30:46;9.07;;;4.63;;
8074;SDS011;4080;42.676;23.372;2022-10-31T00:33:13;8.07;;;4.93;;
8074;SDS011;4080;42.676;23.372;2022-10-31T00:35:41;5.70;;;4.37;;
8074;SDS011;4080;42.676;23.372;2022-10-31T00:38:08;5.97;;;4.63;;
8074;SDS011;4080;42.676;23.372;2022-10-31T00:40:35;6.13;;;4.30;;
8074;SDS011;4080;42.676;23.372;2022-10-31T00:43:01;6.77;;;4.70;;
8074;SDS011;4080;42.676;23.372;2022-10-31T00:45:28;6.30;;;4.40;;
8074;SDS011;4080;42.676;23.372;2022-10-31T00:47:55;7.00;;;4.63;;
8074;SDS011;4080;42.676;23.372;2022-10-31T00:50:21;7.30;;;4.40;;
8074;SDS011;4080;42.676;23.372;2022-10-31T00:52:49;7.83;;;4.73;;
8074;SDS011;4080;42.676;23.372;2022-10-31T00:55:16;5.40;;;4.17;;
8074;SDS011;4080;42.676;23.372;2022-10-31T00:57:45;6.10;;;4.80;;
8074;SDS011;4080;42.676;23.372;2022-10-31T01:00:12;14.03;;;7.23;;
8074;SDS011;4080;42.676;23.372;2022-10-31T01:02:39;13.00;;;8.73;;
8074;SDS011;4080;42.676;23.372;2022-10-31T01:05:06;15.33;;;9.43;;
8074;SDS011;4080;42.676;23.372;2022-10-31T01:07:35;13.23;;;9.53;;
8074;SDS011;4080;42.676;23.372;2022-10-31T01:10:04;11.03;;;8.30;;
8074;SDS011;4080;42.676;23.372;2022-10-31T01:12:35;15.63;;;9.47;;
8074;SDS011;4080;42.676;23.372;2022-10-31T01:15:02;13.20;;;9.30;;
8074;SDS011;4080;42.676;23.372;2022-10-31T01:17:30;11.00;;;9.10;;
8074;SDS011;4080;42.676;23.372;2022-10-31T01:19:56;12.17;;;8.87;;
8074;SDS011;4080;42.676;23.372;2022-10-31T01:22:23;11.17;;;8.50;;
8074;SDS011;4080;42.676;23.372;2022-10-31T01:24:50;14.70;;;8.47;;
8074;SDS011;4080;42.676;23.372;2022-10-31T01:27:18;11.60;;;8.93;;
8074;SDS011;4080;42.676;23.372;2022-10-31T01:29:45;11.90;;;9.30;;
8074;SDS011;4080;42.676;23.372;2022-10-31T01:32:11;15.63;;;9.33;;
8074;SDS011;4080;42.676;23.372;2022-10-31T01:34:38;15.30;;;8.97;;
8074;SDS011;4080;42.676;23.372;2022-10-31T01:37:05;12.90;;;9.10;;
8074;SDS011;4080;42.676;23.372;2022-10-31T01:39:32;12.47;;;9.27;;
8074;SDS011;4080;42.676;23.372;2022-10-31T01:41:58;12.53;;;8.87;;
8074;SDS011;4080;42.676;23.372;2022-10-31T01:44:48;15.70;;;9.20;;
8074;SDS011;4080;42.676;23.372;2022-10-31T01:47:18;12.53;;;8.83;;
8074;SDS011;4080;42.676;23.372;2022-10-31T01:49:48;13.30;;;9.43;;
8074;SDS011;4080;42.676;23.372;2022-10-31T01:52:19;13.53;;;9.33;;
8074;SDS011;4080;42.676;23.372;2022-10-31T01:54:50;14.93;;;9.90;;
8074;SDS011;4080;42.676;23.372;2022-10-31T01:57:22;11.93;;;9.47;;
8074;SDS011;4080;42.676;23.372;2022-10-31T01:59:53;14.03;;;9.60;;
8074;SDS011;4080;42.676;23.372;2022-10-31T02:02:24;12.83;;;9.73;;
8074;SDS011;4080;42.676;23.372;2022-10-31T02:04:53;11.77;;;8.87;;
8074;SDS011;4080;42.676;23.372;2022-10-31T02:07:22;14.83;;;8.80;;
8074;SDS011;4080;42.676;23.372;2022-10-31T02:09:52;12.17;;;9.23;;
8074;SDS011;4080;42.676;23.372;2022-10-31T02:12:21;13.43;;;8.57;;
8074;SDS011;4080;42.676;23.372;2022-10-31T02:14:50;11.13;;;9.13;;
8074;SDS011;4080;42.676;23.372;2022-10-31T02:17:18;17.30;;;8.73;;
8074;SDS011;4080;42.676;23.372;2022-10-31T02:19:46;12.63;;;8.37;;
8074;SDS011;4080;42.676;23.372;2022-10-31T02:22:20;14.17;;;8.13;;
8074;SDS011;4080;42.676;23.372;2022-10-31T02:24:56;11.07;;;8.70;;
8074;SDS011;4080;42.676;23.372;2022-10-31T02:27:51;10.60;;;8.03;;
8074;SDS011;4080;42.676;23.372;2022-10-31T02:30:30;12.93;;;8.43;;
8074;SDS011;4080;42.676;23.372;2022-10-31T02:33:09;11.83;;;8.63;;
8074;SDS011;4080;42.676;23.372;2022-10-31T02:35:47;12.90;;;9.23;;
8074;SDS011;4080;42.676;23.372;2022-10-31T02:38:24;17.43;;;9.40;;
8074;SDS011;4080;42.676;23.372;2022-10-31T02:41:01;12.53;;;9.10;;
8074;SDS011;4080;42.676;23.372;2022-10-31T02:43:35;10.90;;;8.20;;
8074;SDS011;4080;42.676;23.372;2022-10-31T02:46:08;12.27;;;8.33;;
8074;SDS011;4080;42.676;23.372;2022-10-31T02:48:41;11.80;;;8.03;;
8074;SDS011;4080;42.676;23.372;2022-10-31T02:51:11;10.20;;;8.10;;
8074;SDS011;4080;42.676;23.372;2022-10-31T02:53:39;12.63;;;7.80;;
8074;SDS011;4080;42.676;23.372;2022-10-31T02:56:06;11.90;;;8.67;;
8074;SDS011;4080;42.676;23.372;2022-10-31T02:58:38;11.47;;;7.80;;
8074;SDS011;4080;42.676;23.372;2022-10-31T03:01:20;11.63;;;8.13;;
8074;SDS011;4080;42.676;23.372;2022-10-31T03:04:01;12.30;;;8.10;;
8074;SDS011;4080;42.676;23.372;2022-10-31T03:06:42;9.07;;;7.50;;
8074;SDS011;4080;42.676;23.372;2022-10-31T03:09:13;12.23;;;8.47;;
8074;SDS011;4080;42.676;23.372;2022-10-31T03:11:51;9.77;;;7.50;;
8074;SDS011;4080;42.676;23.372;2022-10-31T03:14:24;10.53;;;7.83;;
8074;SDS011;4080;42.676;23.372;2022-10-31T03:16:56;13.43;;;7.33;;
8074;SDS011;4080;42.676;23.372;2022-10-31T03:19:30;14.37;;;7.80;;
8074;SDS011;4080;42.676;23.372;2022-10-31T03:22:01;11.83;;;7.43;;
8074;SDS011;4080;42.676;23.372;2022-10-31T03:24:34;9.00;;;7.00;;
8074;SDS011;4080;42.676;23.372;2022-10-31T03:27:05;10.23;;;6.77;;
8074;SDS011;4080;42.676;23.372;2022-10-31T03:29:36;9.13;;;7.03;;
8074;SDS011;4080;42.676;23.372;2022-10-31T03:32:06;11.20;;;7.03;;
8074;SDS011;4080;42.676;23.372;2022-10-31T03:34:37;11.77;;;7.20;;
8074;SDS011;4080;42.676;23.372;2022-10-31T03:37:08;12.70;;;8.90;;
8074;SDS011;4080;42.676;23.372;2022-10-31T03:39:37;12.97;;;8.67;;
8074;SDS011;4080;42.676;23.372;2022-10-31T03:42:07;11.97;;;9.03;;
8074;SDS011;4080;42.676;23.372;2022-10-31T03:44:37;12.00;;;8.77;;
8074;SDS011;4080;42.676;23.372;2022-10-31T03:47:07;17.70;;;8.47;;
8074;SDS011;4080;42.676;23.372;2022-10-31T03:49:34;12.70;;;8.23;;
8074;SDS011;4080;42.676;23.372;2022-10-31T03:52:06;10.57;;;8.23;;
8074;SDS011;4080;42.676;23.372;2022-10-31T03:54:40;12.63;;;8.67;;
8074;SDS011;4080;42.676;23.372;2022-10-31T03:57:11;13.93;;;8.53;;
8074;SDS011;4080;42.676;23.372;2022-10-31T03:59:45;13.00;;;9.63;;
8074;SDS011;4080;42.676;23.372;2022-10-31T04:02:17;12.03;;;9.50;;
8074;SDS011;4080;42.676;23.372;2022-10-31T04:04:48;16.93;;;9.27;;
8074;SDS011;4080;42.676;23.372;2022-10-31T04:07:18;20.47;;;9.73;;
8074;SDS011;4080;42.676;23.372;2022-10-31T04:09:47;13.90;;;9.17;;
8074;SDS011;4080;42.676;23.372;2022-10-31T04:12:17;15.63;;;9.33;;
8074;SDS011;4080;42.676;23.372;2022-10-31T04:14:45;11.03;;;9.07;;
8074;SDS011;4080;42.676;23.372;2022-10-31T04:17:18;14.50;;;9.67;;
8074;SDS011;4080;42.676;23.372;2022-10-31T04:19:48;13.93;;;9.57;;
8074;SDS011;4080;42.676;23.372;2022-10-31T04:22:15;14.67;;;9.77;;
8074;SDS011;4080;42.676;23.372;2022-10-31T04:24:43;22.83;;;10.07;;
8074;SDS011;4080;42.676;23.372;2022-10-31T04:27:10;16.03;;;10.10;;
8074;SDS011;4080;42.676;23.372;2022-10-31T04:29:37;15.37;;;10.17;;
8074;SDS011;4080;42.676;23.372;2022-10-31T04:32:04;15.10;;;10.03;;
8074;SDS011;4080;42.676;23.372;2022-10-31T04:34:30;14.20;;;9.83;;
8074;SDS011;4080;42.676;23.372;2022-10-31T04:36:57;14.87;;;10.20;;
8074;SDS011;4080;42.676;23.372;2022-10-31T04:39:24;14.10;;;10.53;;
8074;SDS011;4080;42.676;23.372;2022-10-31T04:41:52;17.03;;;10.40;;
8074;SDS011;4080;42.676;23.372;2022-10-31T04:44:19;15.50;;;10.07;;
8074;SDS011;4080;42.676;23.372;2022-10-31T04:46:45;15.10;;;9.40;;
8074;SDS011;4080;42.676;23.372;2022-10-31T04:49:12;14.07;;;8.80;;
8074;SDS011;4080;42.676;23.372;2022-10-31T04:51:39;16.37;;;9.47;;
8074;SDS011;4080;42.676;23.372;2022-10-31T04:54:06;14.33;;;9.87;;
8074;SDS011;4080;42.676;23.372;2022-10-31T04:56:33;16.23;;;10.13;;
8074;SDS011;4080;42.676;23.372;2022-10-31T04:59:01;16.23;;;12.03;;
8074;SDS011;4080;42.676;23.372;2022-10-31T05:01:27;16.57;;;10.60;;
8074;SDS011;4080;42.676;23.372;2022-10-31T05:03:54;20.30;;;10.90;;
8074;SDS011;4080;42.676;23.372;2022-10-31T05:06:21;18.60;;;11.17;;
8074;SDS011;4080;42.676;23.372;2022-10-31T05:08:47;19.63;;;11.17;;
8074;SDS011;4080;42.676;23.372;2022-10-31T05:11:14;23.77;;;10.67;;
8074;SDS011;4080;42.676;23.372;2022-10-31T05:13:41;20.47;;;10.80;;
8074;SDS011;4080;42.676;23.372;2022-10-31T05:16:09;22.17;;;9.97;;
8074;SDS011;4080;42.676;23.372;2022-10-31T05:18:36;18.43;;;9.93;;
8074;SDS011;4080;42.676;23.372;2022-10-31T05:21:02;17.33;;;9.90;;
8074;SDS011;4080;42.676;23.372;2022-10-31T05:23:29;27.13;;;12.87;;
8074;SDS011;4080;42.676;23.372;2022-10-31T05:25:56;21.93;;;12.37;;
8074;SDS011;4080;42.676;23.372;2022-10-31T05:28:22;38.63;;;25.63;;
8074;SDS011;4080;42.676;23.372;2022-10-31T05:30:49;28.30;;;13.30;;
8074;SDS011;4080;42.676;23.372;2022-10-31T05:33:17;30.43;;;18.03;;
8074;SDS011;4080;42.676;23.372;2022-10-31T05:35:44;24.07;;;16.77;;
8074;SDS011;4080;42.676;23.372;2022-10-31T05:38:11;33.67;;;19.03;;
8074;SDS011;4080;42.676;23.372;2022-10-31T05:40:37;31.83;;;17.90;;
8074;SDS011;4080;42.676;23.372;2022-10-31T05:43:04;37.47;;;18.93;;
8074;SDS011;4080;42.676;23.372;2022-10-31T05:45:31;29.00;;;18.40;;
8074;SDS011;4080;42.676;23.372;2022-10-31T05:47:58;37.40;;;19.70;;
8074;SDS011;4080;42.676;23.372;2022-10-31T05:50:28;42.60;;;21.53;;
8074;SDS011;4080;42.676;23.372;2022-10-31T05:52:57;44.20;;;24.50;;
8074;SDS011;4080;42.676;23.372;2022-10-31T05:55:25;38.40;;;25.00;;
8074;SDS011;4080;42.676;23.372;2022-10-31T05:57:52;45.73;;;23.77;;
8074;SDS011;4080;42.676;23.372;2022-10-31T06:00:19;40.57;;;23.37;;
8074;SDS011;4080;42.676;23.372;2022-10-31T06:02:47;41.33;;;25.33;;
8074;SDS011;4080;42.676;23.372;2022-10-31T06:05:14;44.40;;;24.37;;
8074;SDS011;4080;42.676;23.372;2022-10-31T06:07:42;37.47;;;23.43;;
8074;SDS011;4080;42.676;23.372;2022-10-31T06:10:09;41.23;;;24.17;;
8074;SDS011;4080;42.676;23.372;2022-10-31T06:12:36;39.83;;;23.77;;
8074;SDS011;4080;42.676;23.372;2022-10-31T06:15:04;46.07;;;23.30;;
8074;SDS011;4080;42.676;23.372;2022-10-31T06:17:32;37.50;;;22.23;;
8074;SDS011;4080;42.676;23.372;2022-10-31T06:19:58;39.67;;;24.33;;
8074;SDS011;4080;42.676;23.372;2022-10-31T06:22:25;43.97;;;24.33;;
8074;SDS011;4080;42.676;23.372;2022-10-31T06:24:53;41.23;;;23.10;;
8074;SDS011;4080;42.676;23.372;2022-10-31T06:27:20;43.20;;;22.73;;
8074;SDS011;4080;42.676;23.372;2022-10-31T06:29:47;43.30;;;23.67;;
8074;SDS011;4080;42.676;23.372;2022-10-31T06:32:13;37.37;;;20.23;;
8074;SDS011;4080;42.676;23.372;2022-10-31T06:34:41;36.50;;;20.20;;
8074;SDS011;4080;42.676;23.372;2022-10-31T06:37:09;34.90;;;19.20;;
8074;SDS011;4080;42.676;23.372;2022-10-31T06:39:37;22.97;;;14.63;;
8074;SDS011;4080;42.676;23.372;2022-10-31T06:42:05;23.77;;;14.80;;
8074;SDS011;4080;42.676;23.372;2022-10-31T06:44:32;25.37;;;15.73;;
8074;SDS011;4080;42.676;23.372;2022-10-31T06:46:59;20.70;;;13.40;;
8074;SDS011;4080;42.676;23.372;2022-10-31T06:49:26;15.90;;;10.83;;
8074;SDS011;4080;42.676;23.372;2022-10-31T06:51:53;14.30;;;10.90;;
8074;SDS011;4080;42.676;23.372;2022-10-31T06:54:20;16.80;;;12.03;;
8074;SDS011;4080;42.676;23.372;2022-10-31T06:56:47;15.83;;;12.33;;
8074;SDS011;4080;42.676;23.372;2022-10-31T06:59:15;20.97;;;12.87;;
8074;SDS011;4080;42.676;23.372;2022-10-31T07:01:42;17.90;;;12.37;;
8074;SDS011;4080;42.676;23.372;2022-10-31T07:04:09;19.77;;;11.67;;
8074;SDS011;4080;42.676;23.372;2022-10-31T07:06:36;18.10;;;12.27;;
8074;SDS011;4080;42.676;23.372;2022-10-31T07:09:03;16.67;;;12.23;;
8074;SDS011;4080;42.676;23.372;2022-10-31T07:11:30;18.00;;;12.87;;
8074;SDS011;4080;42.676;23.372;2022-10-31T07:13:57;19.00;;;12.80;;
8074;SDS011;4080;42.676;23.372;2022-10-31T07:16:25;16.53;;;13.47;;
8074;SDS011;4080;42.676;23.372;2022-10-31T07:18:52;23.27;;;16.20;;
8074;SDS011;4080;42.676;23.372;2022-10-31T07:21:18;19.40;;;16.07;;
8074;SDS011;4080;42.676;23.372;2022-10-31T07:23:46;24.87;;;18.43;;
8074;SDS011;4080;42.676;23.372;2022-10-31T07:26:14;23.80;;;18.13;;
8074;SDS011;4080;42.676;23.372;2022-10-31T07:28:40;27.13;;;17.67;;
8074;SDS011;4080;42.676;23.372;2022-10-31T07:31:07;24.40;;;18.13;;
8074;SDS011;4080;42.676;23.372;2022-10-31T07:33:35;26.60;;;16.77;;
8074;SDS011;4080;42.676;23.372;2022-10-31T07:36:02;23.43;;;17.33;;
8074;SDS011;4080;42.676;23.372;2022-10-31T07:38:29;21.10;;;16.13;;
8074;SDS011;4080;42.676;23.372;2022-10-31T07:40:55;19.63;;;14.07;;
8074;SDS011;4080;42.676;23.372;2022-10-31T07:43:22;17.03;;;14.30;;
8074;SDS011;4080;42.676;23.372;2022-10-31T07:45:49;18.90;;;13.80;;
8074;SDS011;4080;42.676;23.372;2022-10-31T07:48:17;17.57;;;13.60;;
8074;SDS011;4080;42.676;23.372;2022-10-31T07:50:45;18.07;;;13.03;;
8074;SDS011;4080;42.676;23.372;2022-10-31T07:53:12;16.80;;;12.20;;
8074;SDS011;4080;42.676;23.372;2022-10-31T07:55:40;20.70;;;12.63;;
8074;SDS011;4080;42.676;23.372;2022-10-31T07:58:07;15.73;;;12.43;;
8074;SDS011;4080;42.676;23.372;2022-10-31T08:00:35;21.17;;;13.00;;
8074;SDS011;4080;42.676;23.372;2022-10-31T08:03:03;15.63;;;12.40;;
8074;SDS011;4080;42.676;23.372;2022-10-31T08:05:31;19.67;;;13.50;;
8074;SDS011;4080;42.676;23.372;2022-10-31T08:08:00;20.03;;;14.73;;
8074;SDS011;4080;42.676;23.372;2022-10-31T08:10:27;16.53;;;14.73;;
8074;SDS011;4080;42.676;23.372;2022-10-31T08:12:57;22.47;;;14.93;;
8074;SDS011;4080;42.676;23.372;2022-10-31T08:15:25;20.30;;;14.00;;
8074;SDS011;4080;42.676;23.372;2022-10-31T08:17:52;18.87;;;14.10;;
8074;SDS011;4080;42.676;23.372;2022-10-31T08:20:20;25.23;;;15.40;;
8074;SDS011;4080;42.676;23.372;2022-10-31T08:22:53;24.80;;;15.93;;
8074;SDS011;4080;42.676;23.372;2022-10-31T08:25:22;25.10;;;15.33;;
8074;SDS011;4080;42.676;23.372;2022-10-31T08:27:50;23.90;;;16.27;;
8074;SDS011;4080;42.676;23.372;2022-10-31T08:30:18;22.53;;;15.40;;
8074;SDS011;4080;42.676;23.372;2022-10-31T08:32:45;20.90;;;14.10;;
8074;SDS011;4080;42.676;23.372;2022-10-31T08:35:13;19.80;;;13.43;;
8074;SDS011;4080;42.676;23.372;2022-10-31T08:37:39;21.27;;;13.83;;
8074;SDS011;4080;42.676;23.372;2022-10-31T08:40:07;21.70;;;14.60;;
8074;SDS011;4080;42.676;23.372;2022-10-31T08:42:36;18.67;;;13.87;;
8074;SDS011;4080;42.676;23.372;2022-10-31T08:45:03;17.60;;;14.13;;
8074;SDS011;4080;42.676;23.372;2022-10-31T08:47:30;22.93;;;13.97;;
8074;SDS011;4080;42.676;23.372;2022-10-31T08:49:57;21.27;;;14.10;;
8074;SDS011;4080;42.676;23.372;2022-10-31T08:52:23;18.37;;;13.23;;
8074;SDS011;4080;42.676;23.372;2022-10-31T08:54:51;21.33;;;13.77;;
8074;SDS011;4080;42.676;23.372;2022-10-31T08:57:17;26.07;;;18.63;;
8074;SDS011;4080;42.676;23.372;2022-10-31T08:59:46;20.90;;;14.23;;
8074;SDS011;4080;42.676;23.372;2022-10-31T09:02:12;19.00;;;14.27;;
8074;SDS011;4080;42.676;23.372;2022-10-31T09:04:39;19.03;;;13.40;;
8074;SDS011;4080;42.676;23.372;2022-10-31T09:07:06;18.43;;;13.67;;
8074;SDS011;4080;42.676;23.372;2022-10-31T09:09:32;16.23;;;12.77;;
8074;SDS011;4080;42.676;23.372;2022-10-31T09:11:59;21.00;;;14.20;;
8074;SDS011;4080;42.676;23.372;2022-10-31T09:14:26;20.10;;;14.10;;
8074;SDS011;4080;42.676;23.372;2022-10-31T09:16:54;20.40;;;14.23;;
8074;SDS011;4080;42.676;23.372;2022-10-31T09:19:21;21.53;;;14.57;;
8074;SDS011;4080;42.676;23.372;2022-10-31T09:21:51;18.90;;;13.37;;
8074;SDS011;4080;42.676;23.372;2022-10-31T09:24:18;16.83;;;13.23;;
8074;SDS011;4080;42.676;23.372;2022-10-31T09:26:45;16.20;;;13.50;;
8074;SDS011;4080;42.676;23.372;2022-10-31T09:29:12;19.13;;;13.70;;
8074;SDS011;4080;42.676;23.372;2022-10-31T09:31:38;17.23;;;13.30;;
8074;SDS011;4080;42.676;23.372;2022-10-31T09:34:06;20.93;;;14.20;;
8074;SDS011;4080;42.676;23.372;2022-10-31T09:36:33;18.97;;;13.00;;
8074;SDS011;4080;42.676;23.372;2022-10-31T09:39:00;17.63;;;12.23;;
8074;SDS011;4080;42.676;23.372;2022-10-31T09:41:28;17.03;;;12.47;;
8074;SDS011;4080;42.676;23.372;2022-10-31T09:44:08;18.57;;;12.27;;
8074;SDS011;4080;42.676;23.372;2022-10-31T09:46:47;17.27;;;11.67;;
8074;SDS011;4080;42.676;23.372;2022-10-31T09:49:28;18.70;;;11.80;;
8074;SDS011;4080;42.676;23.372;2022-10-31T09:52:03;13.60;;;10.97;;
8074;SDS011;4080;42.676;23.372;2022-10-31T09:54:35;19.53;;;13.07;;
8074;SDS011;4080;42.676;23.372;2022-10-31T09:57:04;17.50;;;11.27;;
8074;SDS011;4080;42.676;23.372;2022-10-31T09:59:38;16.20;;;12.83;;
8074;SDS011;4080;42.676;23.372;2022-10-31T10:02:10;18.37;;;11.63;;
8074;SDS011;4080;42.676;23.372;2022-10-31T10:04:44;13.80;;;10.80;;
8074;SDS011;4080;42.676;23.372;2022-10-31T10:07:20;16.83;;;11.57;;
8074;SDS011;4080;42.676;23.372;2022-10-31T10:09:51;16.50;;;10.97;;
8074;SDS011;4080;42.676;23.372;2022-10-31T10:12:19;19.63;;;10.77;;
8074;SDS011;4080;42.676;23.372;2022-10-31T10:15:05;16.00;;;10.13;;
8074;SDS011;4080;42.676;23.372;2022-10-31T10:17:50;17.63;;;10.57;;
8074;SDS011;4080;42.676;23.372;2022-10-31T10:20:28;14.23;;;9.70;;
8074;SDS011;4080;42.676;23.372;2022-10-31T10:23:07;12.57;;;8.73;;
8074;SDS011;4080;42.676;23.372;2022-10-31T10:25:47;13.87;;;9.80;;
8074;SDS011;4080;42.676;23.372;2022-10-31T10:28:20;15.37;;;8.53;;
8074;SDS011;4080;42.676;23.372;2022-10-31T10:30:50;10.90;;;8.00;;
8074;SDS011;4080;42.676;23.372;2022-10-31T10:33:19;13.90;;;8.77;;
8074;SDS011;4080;42.676;23.372;2022-10-31T10:35:52;14.87;;;7.97;;
8074;SDS011;4080;42.676;23.372;2022-10-31T10:38:23;11.20;;;6.50;;
8074;SDS011;4080;42.676;23.372;2022-10-31T10:40:53;6.90;;;5.53;;
8074;SDS011;4080;42.676;23.372;2022-10-31T10:43:22;10.60;;;6.27;;
8074;SDS011;4080;42.676;23.372;2022-10-31T10:46:00;11.53;;;6.37;;
8074;SDS011;4080;42.676;23.372;2022-10-31T10:48:57;8.17;;;6.13;;
8074;SDS011;4080;42.676;23.372;2022-10-31T10:51:32;9.60;;;5.90;;
8074;SDS011;4080;42.676;23.372;2022-10-31T10:54:13;9.77;;;5.00;;
8074;SDS011;4080;42.676;23.372;2022-10-31T10:56:56;9.03;;;4.87;;
8074;SDS011;4080;42.676;23.372;2022-10-31T10:59:30;9.90;;;5.57;;
8074;SDS011;4080;42.676;23.372;2022-10-31T11:01:57;9.37;;;5.10;;
8074;SDS011;4080;42.676;23.372;2022-10-31T11:04:26;9.33;;;6.00;;
8074;SDS011;4080;42.676;23.372;2022-10-31T11:07:01;8.83;;;5.37;;
8074;SDS011;4080;42.676;23.372;2022-10-31T11:09:30;12.10;;;5.33;;
8074;SDS011;4080;42.676;23.372;2022-10-31T11:11:57;12.27;;;6.13;;
8074;SDS011;4080;42.676;23.372;2022-10-31T11:14:24;12.27;;;5.63;;
8074;SDS011;4080;42.676;23.372;2022-10-31T11:16:54;7.37;;;5.40;;
8074;SDS011;4080;42.676;23.372;2022-10-31T11:19:22;9.93;;;4.87;;
8074;SDS011;4080;42.676;23.372;2022-10-31T11:21:51;6.13;;;4.50;;
8074;SDS011;4080;42.676;23.372;2022-10-31T11:24:20;11.07;;;4.80;;
8074;SDS011;4080;42.676;23.372;2022-10-31T11:26:48;11.57;;;4.57;;
8074;SDS011;4080;42.676;23.372;2022-10-31T11:29:17;7.27;;;5.00;;
8074;SDS011;4080;42.676;23.372;2022-10-31T11:31:48;11.40;;;4.73;;
8074;SDS011;4080;42.676;23.372;2022-10-31T11:34:29;11.67;;;5.77;;
8074;SDS011;4080;42.676;23.372;2022-10-31T11:37:01;10.37;;;4.93;;
8074;SDS011;4080;42.676;23.372;2022-10-31T11:39:32;7.93;;;5.07;;
8074;SDS011;4080;42.676;23.372;2022-10-31T11:42:06;15.63;;;5.03;;
8074;SDS011;4080;42.676;23.372;2022-10-31T11:44:33;7.03;;;4.27;;
8074;SDS011;4080;42.676;23.372;2022-10-31T11:47:00;7.60;;;4.70;;
8074;SDS011;4080;42.676;23.372;2022-10-31T11:49:30;10.87;;;5.63;;
8074;SDS011;4080;42.676;23.372;2022-10-31T11:51:59;7.00;;;4.50;;
8074;SDS011;4080;42.676;23.372;2022-10-31T11:54:32;11.03;;;4.70;;
8074;SDS011;4080;42.676;23.372;2022-10-31T11:57:07;12.03;;;5.00;;
8074;SDS011;4080;42.676;23.372;2022-10-31T11:59:50;10.03;;;5.03;;
8074;SDS011;4080;42.676;23.372;2022-10-31T12:02:18;8.80;;;4.93;;
8074;SDS011;4080;42.676;23.372;2022-10-31T12:04:46;11.23;;;4.67;;
8074;SDS011;4080;42.676;23.372;2022-10-31T12:07:17;7.97;;;4.40;;
8074;SDS011;4080;42.676;23.372;2022-10-31T12:09:45;10.10;;;4.50;;
8074;SDS011;4080;42.676;23.372;2022-10-31T12:12:21;10.90;;;4.63;;
8074;SDS011;4080;42.676;23.372;2022-10-31T12:15:19;6.23;;;4.40;;
8074;SDS011;4080;42.676;23.372;2022-10-31T12:17:58;7.53;;;4.50;;
8074;SDS011;4080;42.676;23.372;2022-10-31T12:20:45;7.07;;;3.80;;
8074;SDS011;4080;42.676;23.372;2022-10-31T12:23:24;8.70;;;4.23;;
8074;SDS011;4080;42.676;23.372;2022-10-31T12:26:03;10.57;;;4.60;;
8074;SDS011;4080;42.676;23.372;2022-10-31T12:31:47;17.43;;;4.47;;
8074;SDS011;4080;42.676;23.372;2022-10-31T12:34:38;8.60;;;4.70;;
8074;SDS011;4080;42.676;23.372;2022-10-31T12:37:17;7.50;;;4.80;;
8074;SDS011;4080;42.676;23.372;2022-10-31T12:39:58;9.07;;;5.27;;
8074;SDS011;4080;42.676;23.372;2022-10-31T12:42:41;8.73;;;4.80;;
8074;SDS011;4080;42.676;23.372;2022-10-31T12:45:27;11.60;;;5.53;;
8074;SDS011;4080;42.676;23.372;2022-10-31T12:48:11;9.30;;;4.47;;
8074;SDS011;4080;42.676;23.372;2022-10-31T12:50:52;8.60;;;4.87;;
8074;SDS011;4080;42.676;23.372;2022-10-31T12:53:30;11.00;;;4.47;;
8074;SDS011;4080;42.676;23.372;2022-10-31T12:56:11;10.00;;;4.73;;
8074;SDS011;4080;42.676;23.372;2022-10-31T12:58:49;8.50;;;4.20;;
8074;SDS011;4080;42.676;23.372;2022-10-31T13:01:23;7.80;;;4.10;;
8074;SDS011;4080;42.676;23.372;2022-10-31T13:03:55;10.80;;;4.60;;
8074;SDS011;4080;42.676;23.372;2022-10-31T13:06:30;10.47;;;4.80;;
8074;SDS011;4080;42.676;23.372;2022-10-31T13:09:01;10.37;;;4.40;;
8074;SDS011;4080;42.676;23.372;2022-10-31T13:11:33;8.60;;;4.63;;
8074;SDS011;4080;42.676;23.372;2022-10-31T13:14:05;8.27;;;3.90;;
8074;SDS011;4080;42.676;23.372;2022-10-31T13:16:36;7.50;;;4.33;;
8074;SDS011;4080;42.676;23.372;2022-10-31T13:19:17;8.30;;;4.10;;
8074;SDS011;4080;42.676;23.372;2022-10-31T13:21:51;11.23;;;4.40;;
8074;SDS011;4080;42.676;23.372;2022-10-31T13:24:26;9.10;;;4.17;;
8074;SDS011;4080;42.676;23.372;2022-10-31T13:27:00;9.60;;;4.10;;
8074;SDS011;4080;42.676;23.372;2022-10-31T13:29:36;9.53;;;5.30;;
8074;SDS011;4080;42.676;23.372;2022-10-31T13:32:07;13.70;;;7.17;;
8074;SDS011;4080;42.676;23.372;2022-10-31T13:34:36;7.77;;;4.30;;
8074;SDS011;4080;42.676;23.372;2022-10-31T13:37:12;10.33;;;4.40;;
8074;SDS011;4080;42.676;23.372;2022-10-31T13:39:52;11.03;;;4.00;;
8074;SDS011;4080;42.676;23.372;2022-10-31T13:42:34;13.73;;;4.40;;
8074;SDS011;4080;42.676;23.372;2022-10-31T13:45:15;7.43;;;4.40;;
8074;SDS011;4080;42.676;23.372;2022-10-31T13:47:43;10.53;;;3.87;;
8074;SDS011;4080;42.676;23.372;2022-10-31T13:50:22;13.60;;;4.20;;
8074;SDS011;4080;42.676;23.372;2022-10-31T13:52:51;8.47;;;4.20;;
8074;SDS011;4080;42.676;23.372;2022-10-31T13:55:37;7.10;;;3.83;;
8074;SDS011;4080;42.676;23.372;2022-10-31T13:58:19;11.00;;;4.47;;
8074;SDS011;4080;42.676;23.372;2022-10-31T14:00:58;7.00;;;4.40;;
8074;SDS011;4080;42.676;23.372;2022-10-31T14:03:28;8.27;;;4.00;;
8074;SDS011;4080;42.676;23.372;2022-10-31T14:05:57;7.97;;;4.70;;
8074;SDS011;4080;42.676;23.372;2022-10-31T14:08:24;9.57;;;4.90;;
8074;SDS011;4080;42.676;23.372;2022-10-31T14:10:51;9.37;;;4.37;;
8074;SDS011;4080;42.676;23.372;2022-10-31T14:13:20;7.90;;;4.20;;
8074;SDS011;4080;42.676;23.372;2022-10-31T14:15:53;7.63;;;3.90;;
8074;SDS011;4080;42.676;23.372;2022-10-31T14:18:24;12.37;;;4.27;;
8074;SDS011;4080;42.676;23.372;2022-10-31T14:20:55;12.07;;;4.57;;
8074;SDS011;4080;42.676;23.372;2022-10-31T14:26:20;9.23;;;4.90;;
8074;SDS011;4080;42.676;23.372;2022-10-31T14:28:57;7.50;;;3.73;;
8074;SDS011;4080;42.676;23.372;2022-10-31T14:31:29;7.73;;;3.77;;
8074;SDS011;4080;42.676;23.372;2022-10-31T14:34:03;6.13;;;4.20;;
8074;SDS011;4080;42.676;23.372;2022-10-31T14:36:47;9.90;;;4.23;;
8074;SDS011;4080;42.676;23.372;2022-10-31T14:39:31;8.60;;;4.23;;
8074;SDS011;4080;42.676;23.372;2022-10-31T14:42:07;7.07;;;4.30;;
8074;SDS011;4080;42.676;23.372;2022-10-31T14:44:58;11.77;;;4.13;;
8074;SDS011;4080;42.676;23.372;2022-10-31T14:47:52;13.47;;;4.30;;
8074;SDS011;4080;42.676;23.372;2022-10-31T14:53:20;11.00;;;4.90;;
8074;SDS011;4080;42.676;23.372;2022-10-31T14:55:52;10.90;;;4.67;;
8074;SDS011;4080;42.676;23.372;2022-10-31T14:58:21;10.63;;;4.60;;
8074;SDS011;4080;42.676;23.372;2022-10-31T15:00:50;9.83;;;5.00;;
8074;SDS011;4080;42.676;23.372;2022-10-31T15:03:22;11.73;;;5.27;;
8074;SDS011;4080;42.676;23.372;2022-10-31T15:05:55;7.67;;;4.20;;
8074;SDS011;4080;42.676;23.372;2022-10-31T15:08:26;12.57;;;4.20;;
8074;SDS011;4080;42.676;23.372;2022-10-31T15:10:58;12.77;;;4.40;;
8074;SDS011;4080;42.676;23.372;2022-10-31T15:13:29;10.53;;;4.23;;
8074;SDS011;4080;42.676;23.372;2022-10-31T15:15:55;12.33;;;4.57;;